Time;durP1;ratioP1;P1;durP2;ratioP2;P2;SDS_P1;SDS_P2;PMS_P1;PMS_P2;Temp;Humidity;BMP_temperature;BMP_pressure;BME280_temperature;BME280_humidity;BME280_pressure;Samples;Min_cycle;Max_cycle;Signal;HPM_P1;HPM_P2
2022/05/10 00:01:20;;;;;;;12.50;8.77;;;;;;;13.53;100.00;96803.75;5010985;28;20033;-78
2022/05/10 00:03:49;;;;;;;12.20;8.77;;;;;;;13.47;100.00;96799.13;5030820;28;20029;-78
2022/05/10 00:06:15;;;;;;;10.70;8.80;;;;;;;13.40;100.00;96798.94;5031223;28;20060;-79
2022/05/10 00:08:41;;;;;;;12.80;8.80;;;;;;;13.39;100.00;96800.78;4999646;28;20032;-78
2022/05/10 00:11:09;;;;;;;12.27;9.50;;;;;;;13.30;100.00;96798.28;5028135;28;20505;-79
2022/05/10 00:13:35;;;;;;;12.47;9.90;;;;;;;13.25;100.00;96811.97;5035511;28;20030;-78
2022/05/10 00:16:01;;;;;;;11.73;9.47;;;;;;;13.28;100.00;96802.88;5030924;28;20032;-79
2022/05/10 00:18:28;;;;;;;13.07;9.53;;;;;;;13.23;100.00;96808.63;5015957;28;20381;-79
2022/05/10 00:20:54;;;;;;;17.27;10.20;;;;;;;13.24;100.00;96804.16;5021226;28;20038;-79
2022/05/10 00:23:20;;;;;;;12.37;10.40;;;;;;;13.12;100.00;96793.91;5013809;28;20033;-78
2022/05/10 00:25:45;;;;;;;13.43;9.53;;;;;;;13.05;100.00;96798.19;5024803;28;20123;-79
2022/05/10 00:28:11;;;;;;;15.97;10.30;;;;;;;13.05;100.00;96797.38;5013357;28;20102;-79
2022/05/10 00:30:38;;;;;;;11.80;9.83;;;;;;;12.97;100.00;96793.69;5016087;28;20049;-78
2022/05/10 00:33:04;;;;;;;12.63;11.07;;;;;;;12.96;100.00;96792.06;5017499;28;20041;-79
2022/05/10 00:35:31;;;;;;;13.63;11.20;;;;;;;12.88;100.00;96793.84;5031077;28;20044;-79
2022/05/10 00:38:00;;;;;;;12.20;9.43;;;;;;;12.89;100.00;96793.69;5025953;28;20029;-79
2022/05/10 00:40:31;;;;;;;10.70;9.47;;;;;;;12.89;100.00;96796.31;5031369;28;20044;-79
2022/05/10 00:43:02;;;;;;;12.67;10.60;;;;;;;12.84;100.00;96793.31;5015890;28;20038;-79
2022/05/10 00:45:54;;;;;;;13.27;9.90;;;;;;;12.72;100.00;96789.34;5015775;28;20052;-79
2022/05/10 00:48:46;;;;;;;14.13;10.87;;;;;;;12.70;100.00;96786.00;5014664;28;20091;-78
2022/05/10 00:51:14;;;;;;;13.40;11.07;;;;;;;12.76;100.00;96795.94;5028147;28;20052;-78
2022/05/10 00:53:48;;;;;;;14.77;11.20;;;;;;;12.77;100.00;96792.31;5005091;28;20057;-79
2022/05/10 00:56:34;;;;;;;15.07;11.10;;;;;;;12.72;100.00;96787.50;5028970;28;20033;-79
2022/05/10 00:59:11;;;;;;;13.30;11.07;;;;;;;12.72;100.00;96784.06;5001935;28;20029;-79
2022/05/10 01:01:38;;;;;;;13.00;10.83;;;;;;;12.68;100.00;96790.63;5020708;28;20108;-78
2022/05/10 01:04:29;;;;;;;12.33;10.33;;;;;;;12.58;100.00;96787.31;5017424;28;20034;-78
2022/05/10 01:07:02;;;;;;;13.13;11.23;;;;;;;12.47;100.00;96783.09;5016998;28;20041;-79
2022/05/10 01:09:51;;;;;;;14.80;12.13;;;;;;;12.37;100.00;96775.31;5020047;28;20022;-81
2022/05/10 01:12:31;;;;;;;13.07;10.83;;;;;;;12.34;100.00;96774.78;5000228;28;20045;-79
2022/05/10 01:15:12;;;;;;;13.17;11.10;;;;;;;12.34;100.00;96785.34;5022719;28;20041;-78
2022/05/10 01:17:39;;;;;;;12.07;10.60;;;;;;;12.27;100.00;96775.44;5018573;28;20483;-78
2022/05/10 01:20:07;;;;;;;15.80;10.73;;;;;;;12.36;100.00;96783.38;5014167;28;20042;-79
2022/05/10 01:22:58;;;;;;;15.03;11.00;;;;;;;12.29;100.00;96766.53;5021057;28;20064;-79
2022/05/10 01:25:36;;;;;;;16.00;11.20;;;;;;;11.95;100.00;96770.78;4997233;28;20136;-78
2022/05/10 01:28:14;;;;;;;14.13;10.20;;;;;;;11.91;100.00;96774.72;5006824;28;20034;-79
2022/05/10 01:30:40;;;;;;;13.83;10.90;;;;;;;11.73;100.00;96765.97;5015869;28;20100;-78
2022/05/10 01:33:30;;;;;;;13.73;11.17;;;;;;;11.68;100.00;96773.53;5024618;28;20091;-78
2022/05/10 01:36:20;;;;;;;12.67;11.10;;;;;;;11.65;100.00;96771.19;4999796;28;20092;-79
2022/05/10 01:39:10;;;;;;;13.10;10.70;;;;;;;11.65;100.00;96774.66;5024406;28;20038;-79
2022/05/10 01:41:45;;;;;;;13.83;10.93;;;;;;;11.67;100.00;96772.69;5035285;28;20092;-79
2022/05/10 01:44:36;;;;;;;16.80;11.73;;;;;;;11.56;100.00;96771.09;5013697;28;20033;-78
2022/05/10 01:47:13;;;;;;;14.10;12.30;;;;;;;11.55;100.00;96764.19;5014226;28;20112;-78
2022/05/10 01:49:52;;;;;;;16.50;12.70;;;;;;;11.52;100.00;96759.22;5007723;28;20030;-78
2022/05/10 01:52:44;;;;;;;13.60;11.97;;;;;;;11.51;100.00;96760.22;5028911;28;20169;-78
2022/05/10 01:55:28;;;;;;;13.13;11.43;;;;;;;11.52;100.00;96761.88;5016980;28;20706;-78
2022/05/10 01:57:58;;;;;;;15.10;11.93;;;;;;;11.48;100.00;96755.25;4997110;28;20529;-78
2022/05/10 02:00:27;;;;;;;14.90;12.60;;;;;;;11.34;100.00;96758.44;5027344;28;20040;-78
2022/05/10 02:03:20;;;;;;;15.17;11.43;;;;;;;11.33;100.00;96759.38;5022172;28;20052;-79
2022/05/10 02:05:55;;;;;;;17.37;12.83;;;;;;;11.26;100.00;96760.97;5029634;28;20391;-78
2022/05/10 02:08:49;;;;;;;14.50;12.57;;;;;;;11.31;100.00;96751.66;5015491;28;20033;-79
2022/05/10 02:11:16;;;;;;;13.83;11.90;;;;;;;11.35;100.00;96751.34;5030575;28;20045;-79
2022/05/10 02:14:01;;;;;;;15.17;12.50;;;;;;;11.35;100.00;96743.44;5034180;28;20041;-78
2022/05/10 02:16:45;;;;;;;14.27;12.30;;;;;;;11.33;100.00;96747.06;5023609;28;20042;-78
2022/05/10 02:19:17;;;;;;;;;;;;;;;11.33;100.00;96743.59;5031342;28;20103;-79
2022/05/10 02:21:55;;;;;;;16.50;13.40;;;;;;;11.34;100.00;96740.00;4997991;28;19960;-78
2022/05/10 02:24:46;;;;;;;15.30;12.43;;;;;;;11.35;100.00;96744.28;5026217;28;20449;-78
2022/05/10 02:27:18;;;;;;;15.43;13.33;;;;;;;11.39;100.00;96742.16;5030353;28;20503;-78
2022/05/10 02:29:49;;;;;;;17.37;13.10;;;;;;;11.36;100.00;96748.56;5022626;28;20257;-78
2022/05/10 02:35:10;;;;;;;17.77;13.87;;;;;;;11.35;100.00;96741.63;5031195;28;20057;-78
2022/05/10 02:37:36;;;;;;;19.00;13.73;;;;;;;11.19;100.00;96741.50;5007208;28;20033;-78
2022/05/10 02:40:04;;;;;;;15.83;13.00;;;;;;;11.17;100.00;96741.66;5037376;28;20037;-78
2022/05/10 02:42:30;;;;;;;21.33;13.97;;;;;;;11.15;100.00;96730.44;5022669;28;20469;-78
2022/05/10 02:44:56;;;;;;;15.57;12.53;;;;;;;11.16;100.00;96731.25;5013061;28;20025;-78
2022/05/10 02:47:39;;;;;;;15.10;13.50;;;;;;;11.09;100.00;96726.59;5021298;28;20064;-78
2022/05/10 02:50:21;;;;;;;17.17;14.07;;;;;;;11.09;100.00;96734.50;5027936;28;20049;-78
2022/05/10 02:52:47;;;;;;;13.73;12.20;;;;;;;11.14;100.00;96727.97;5030675;28;20034;-77
2022/05/10 02:55:39;;;;;;;15.10;13.37;;;;;;;11.05;100.00;96729.69;5034402;28;20433;-78
2022/05/10 02:58:16;;;;;;;14.53;12.97;;;;;;;11.00;100.00;96722.25;5022294;28;20033;-78
2022/05/10 03:00:42;;;;;;;17.97;14.17;;;;;;;10.98;100.00;96724.19;5025685;28;20038;-78
2022/05/10 03:03:13;;;;;;;14.43;12.97;;;;;;;10.98;100.00;96724.19;5034349;28;20028;-78
2022/05/10 03:05:39;;;;;;;17.80;13.70;;;;;;;10.96;100.00;96727.94;5033813;28;20057;-78
2022/05/10 03:08:05;;;;;;;15.90;13.03;;;;;;;10.97;100.00;96729.63;5022004;28;20073;-78
2022/05/10 03:10:32;;;;;;;19.23;14.37;;;;;;;10.96;100.00;96720.88;5022764;28;20112;-78
2022/05/10 03:12:59;;;;;;;15.20;13.60;;;;;;;11.00;100.00;96727.50;5015692;28;20033;-78
2022/05/10 03:15:25;;;;;;;18.43;12.90;;;;;;;10.99;100.00;96725.84;5028268;28;20437;-78
2022/05/10 03:17:50;;;;;;;16.93;12.60;;;;;;;10.94;100.00;96722.84;5025762;28;20033;-78
2022/05/10 03:20:16;;;;;;;18.30;13.47;;;;;;;10.93;100.00;96721.19;5026611;28;20036;-77
2022/05/10 03:22:42;;;;;;;13.97;12.40;;;;;;;10.79;100.00;96714.63;5031151;28;20053;-78
2022/05/10 03:25:08;;;;;;;17.07;12.83;;;;;;;10.70;100.00;96714.72;5001020;28;20088;-78
2022/05/10 03:27:37;;;;;;;15.30;13.60;;;;;;;10.73;100.00;96715.25;5003413;28;20049;-78
2022/05/10 03:30:04;;;;;;;14.60;13.03;;;;;;;10.77;100.00;96718.41;5027582;28;20052;-79
2022/05/10 03:32:30;;;;;;;16.77;14.97;;;;;;;10.71;100.00;96721.63;5021377;28;20034;-78
2022/05/10 03:34:59;;;;;;;17.30;15.20;;;;;;;10.74;100.00;96721.31;5027923;28;20521;-78
2022/05/10 03:37:28;;;;;;;16.03;13.23;;;;;;;10.72;100.00;96720.63;5027400;28;20455;-79
2022/05/10 03:39:54;;;;;;;17.03;14.53;;;;;;;10.67;100.00;96715.00;5016453;28;20032;-78
2022/05/10 03:42:21;;;;;;;16.90;13.60;;;;;;;10.65;100.00;96711.69;5024099;28;20056;-78
2022/05/10 03:44:52;;;;;;;17.30;14.50;;;;;;;10.64;100.00;96707.41;5019760;28;20042;-79
2022/05/10 03:47:20;;;;;;;16.07;14.43;;;;;;;10.63;100.00;96719.72;5029738;28;20029;-78
2022/05/10 03:49:46;;;;;;;21.00;15.53;;;;;;;10.59;100.00;96713.09;5024011;28;20041;-78
2022/05/10 03:52:14;;;;;;;17.10;15.03;;;;;;;10.52;100.00;96728.63;5033084;28;20060;-79
2022/05/10 03:54:41;;;;;;;16.50;14.83;;;;;;;10.39;100.00;96715.00;5002240;28;20038;-78
2022/05/10 03:57:07;;;;;;;18.23;16.33;;;;;;;10.45;100.00;96713.59;5029841;28;20072;-78
2022/05/10 03:59:33;;;;;;;17.37;15.47;;;;;;;10.52;100.00;96715.47;5000642;28;20037;-78
2022/05/10 04:01:58;;;;;;;18.93;15.27;;;;;;;10.52;100.00;96714.66;5011687;28;20044;-78
2022/05/10 04:04:24;;;;;;;20.23;16.40;;;;;;;10.50;100.00;96714.81;5022139;28;20033;-78
2022/05/10 04:06:50;;;;;;;20.27;16.70;;;;;;;10.51;100.00;96721.72;5018500;28;20044;-78
2022/05/10 04:09:17;;;;;;;17.83;15.57;;;;;;;10.51;100.00;96715.63;5017774;28;20621;-79
2022/05/10 04:11:44;;;;;;;17.80;16.00;;;;;;;10.52;100.00;96712.03;5034060;28;20066;-78
2022/05/10 04:14:11;;;;;;;18.60;14.73;;;;;;;10.49;100.00;96712.31;5031039;28;20072;-78
2022/05/10 04:16:37;;;;;;;19.47;16.43;;;;;;;10.53;100.00;96709.25;5027233;28;20030;-78
2022/05/10 04:19:03;;;;;;;21.10;16.03;;;;;;;10.59;100.00;96708.66;5023664;28;20031;-78
2022/05/10 04:21:30;;;;;;;17.40;15.57;;;;;;;10.50;100.00;96704.28;5036429;28;20522;-78
2022/05/10 04:23:56;;;;;;;17.67;15.73;;;;;;;10.36;100.00;96702.13;5028386;28;20032;-79
2022/05/10 04:26:25;;;;;;;18.07;16.13;;;;;;;10.36;100.00;96702.13;5004939;28;20410;-77
2022/05/10 04:28:52;;;;;;;19.63;16.47;;;;;;;10.41;100.00;96706.97;5016944;28;20094;-78
2022/05/10 04:31:20;;;;;;;19.63;15.73;;;;;;;10.51;100.00;96716.47;5006965;28;20037;-78
2022/05/10 04:33:46;;;;;;;17.20;15.40;;;;;;;10.62;100.00;96713.63;5014358;28;20026;-78
2022/05/10 04:36:13;;;;;;;18.03;15.80;;;;;;;10.69;100.00;96713.84;5030061;28;20033;-78
2022/05/10 04:38:39;;;;;;;16.60;14.67;;;;;;;10.78;100.00;96717.41;5029265;28;20382;-78
2022/05/10 04:41:25;;;;;;;19.10;16.30;;;;;;;10.79;100.00;96713.78;5014276;28;20131;-78
2022/05/10 04:44:07;;;;;;;17.67;14.20;;;;;;;10.86;100.00;96717.47;5025596;28;20038;-78
2022/05/10 04:46:35;;;;;;;19.23;15.13;;;;;;;10.90;100.00;96716.22;5014894;28;20542;-78
2022/05/10 04:49:01;;;;;;;19.23;14.80;;;;;;;10.95;100.00;96724.50;5007146;28;20033;-77
2022/05/10 04:51:28;;;;;;;16.13;14.43;;;;;;;10.89;100.00;96721.63;5020437;28;22124;-79
2022/05/10 04:53:55;;;;;;;16.40;14.73;;;;;;;10.97;100.00;96717.28;5028118;28;20044;-78
2022/05/10 04:56:22;;;;;;;16.93;14.93;;;;;;;11.11;100.00;96723.81;5038189;28;20044;-79
2022/05/10 04:58:49;;;;;;;16.07;14.37;;;;;;;11.17;100.00;96725.03;5026021;28;20044;-78
2022/05/10 05:01:17;;;;;;;17.33;14.83;;;;;;;11.19;100.00;96723.06;5037121;28;20038;-79
2022/05/10 05:03:45;;;;;;;16.03;14.43;;;;;;;11.30;100.00;96723.69;5029438;28;20498;-79
2022/05/10 05:06:11;;;;;;;15.93;14.23;;;;;;;11.46;100.00;96733.50;5041531;28;20088;-78
2022/05/10 05:08:42;;;;;;;15.90;14.20;;;;;;;11.49;100.00;96725.28;5031464;28;20100;-80
2022/05/10 05:11:08;;;;;;;17.57;14.83;;;;;;;11.67;100.00;96729.69;5033464;28;20036;-78
2022/05/10 05:13:35;;;;;;;16.40;14.70;;;;;;;11.82;100.00;96732.63;5034144;28;20048;-79
2022/05/10 05:16:02;;;;;;;16.10;13.53;;;;;;;12.01;100.00;96735.09;5018127;28;20499;-78
2022/05/10 05:18:28;;;;;;;14.93;13.33;;;;;;;12.16;100.00;96730.88;5001038;28;20469;-79
2022/05/10 05:20:54;;;;;;;17.87;12.67;;;;;;;12.34;100.00;96732.59;5004741;28;20095;-79
2022/05/10 05:23:22;;;;;;;15.90;13.97;;;;;;;12.57;100.00;96738.13;5017487;28;20511;-79
2022/05/10 05:25:48;;;;;;;16.40;14.53;;;;;;;12.82;100.00;96736.41;5012757;28;20128;-78
2022/05/10 05:28:15;;;;;;;20.37;14.50;;;;;;;13.03;100.00;96735.97;5028025;28;20473;-79
2022/05/10 05:30:43;;;;;;;18.83;13.93;;;;;;;13.12;100.00;96741.09;5026597;28;20036;-79
2022/05/10 05:33:09;;;;;;;16.97;13.67;;;;;;;13.47;100.00;96730.44;5028545;28;20056;-78
2022/05/10 05:35:35;;;;;;;15.93;14.23;;;;;;;13.53;100.00;96727.13;5016424;28;20537;-79
2022/05/10 05:38:01;;;;;;;15.10;13.57;;;;;;;13.87;100.00;96724.28;5020731;28;20037;-78
2022/05/10 05:40:27;;;;;;;15.47;11.30;;;;;;;14.24;100.00;96718.41;5030356;28;20039;-79
2022/05/10 05:42:54;;;;;;;13.37;11.97;;;;;;;14.38;100.00;96725.66;5027559;28;20128;-79
2022/05/10 05:45:24;;;;;;;15.27;11.50;;;;;;;14.65;100.00;96725.41;5029203;28;20065;-79
2022/05/10 05:47:52;;;;;;;14.77;12.88;;;;;;;14.98;100.00;96720.75;5024765;28;20033;-79
2022/05/10 05:50:20;;;;;;;12.03;10.13;;;;;;;15.02;100.00;96719.41;5028352;28;20124;-79
2022/05/10 05:52:47;;;;;;;11.20;9.83;;;;;;;15.07;100.00;96717.91;5018061;28;20030;-79
2022/05/10 05:55:13;;;;;;;17.03;11.57;;;;;;;15.12;100.00;96717.34;5030076;28;20036;-79
2022/05/10 05:57:40;;;;;;;12.70;10.27;;;;;;;15.31;100.00;96711.59;5028449;28;20026;-78
2022/05/10 06:00:13;;;;;;;13.13;10.50;;;;;;;15.36;100.00;96712.88;5020470;28;20036;-80
2022/05/10 06:02:39;;;;;;;10.93;9.80;;;;;;;15.94;100.00;96706.13;5031595;28;20045;-79
2022/05/10 06:05:06;;;;;;;11.63;10.03;;;;;;;15.99;100.00;96706.38;5036693;28;20053;-79
2022/05/10 06:07:32;;;;;;;12.57;10.57;;;;;;;16.36;100.00;96710.78;5016379;28;20438;-79
2022/05/10 06:09:58;;;;;;;10.60;9.37;;;;;;;16.78;100.00;96711.97;5032856;28;20033;-79
2022/05/10 06:12:24;;;;;;;12.57;9.57;;;;;;;17.10;99.45;96709.88;5027912;28;20033;-79
2022/05/10 06:14:51;;;;;;;12.33;9.33;;;;;;;17.20;99.38;96700.59;5025955;28;20413;-80
2022/05/10 06:17:17;;;;;;;12.13;9.52;;;;;;;17.32;97.98;96702.75;5020485;28;20512;-79
2022/05/10 06:19:44;;;;;;;12.25;9.20;;;;;;;17.40;93.45;96705.25;5028434;28;20116;-80
2022/05/10 06:22:14;;;;;;;9.68;8.20;;;;;;;17.77;90.93;96706.88;5035666;28;20111;-79
2022/05/10 06:24:40;;;;;;;11.48;8.98;;;;;;;18.31;89.08;96698.22;5038813;28;20544;-79
2022/05/10 06:27:10;;;;;;;10.02;8.20;;;;;;;18.14;85.66;96692.38;5033701;28;20060;-79
2022/05/10 06:29:36;;;;;;;10.88;8.18;;;;;;;18.17;87.15;96699.13;5027102;28;20037;-79
2022/05/10 06:32:02;;;;;;;11.73;7.80;;;;;;;18.37;84.01;96705.38;5032411;28;20045;-79
2022/05/10 06:34:28;;;;;;;8.75;7.05;;;;;;;18.70;81.91;96698.59;5016841;28;20034;-79
2022/05/10 06:36:54;;;;;;;10.07;8.48;;;;;;;19.26;83.06;96709.03;5036347;28;20025;-80
2022/05/10 06:39:20;;;;;;;9.90;8.30;;;;;;;19.60;86.74;96704.56;5023145;28;20060;-80
2022/05/10 06:41:46;;;;;;;11.48;9.43;;;;;;;19.83;83.24;96699.69;5019270;28;20060;-80
2022/05/10 06:44:12;;;;;;;10.40;8.75;;;;;;;19.67;84.52;96708.91;5040280;28;20039;-80
2022/05/10 06:46:38;;;;;;;10.65;7.88;;;;;;;20.41;78.40;96696.31;5036807;28;20092;-80
2022/05/10 06:49:04;;;;;;;11.85;7.32;;;;;;;20.62;74.66;96695.22;5026947;28;20099;-79
2022/05/10 06:51:31;;;;;;;8.80;6.28;;;;;;;21.01;64.44;96696.09;5027045;28;20041;-80
2022/05/10 06:53:57;;;;;;;8.80;7.10;;;;;;;21.37;63.33;96706.22;5018610;28;20037;-79
2022/05/10 06:56:23;;;;;;;13.48;10.38;;;;;;;21.57;70.27;96700.72;5025787;28;20053;-80
2022/05/10 06:58:49;;;;;;;10.70;8.85;;;;;;;21.08;73.02;96700.38;5040140;28;20024;-80
2022/05/10 07:01:16;;;;;;;11.50;7.97;;;;;;;21.42;72.07;96704.50;5047373;28;20037;-80
2022/05/10 07:03:50;;;;;;;12.35;8.25;;;;;;;21.49;70.24;96700.97;5048726;28;20041;-80
2022/05/10 07:06:19;;;;;;;9.85;8.23;;;;;;;21.46;70.77;96701.41;5042062;28;20040;-80
2022/05/10 07:08:47;;;;;;;11.40;8.20;;;;;;;21.68;71.53;96701.88;5029529;28;20037;-80
2022/05/10 07:11:13;;;;;;;10.32;8.38;;;;;;;22.02;68.71;96697.88;5018322;28;20030;-80
2022/05/10 07:13:39;;;;;;;9.93;7.60;;;;;;;22.72;64.07;96697.59;5004762;28;20541;-80
2022/05/10 07:16:06;;;;;;;10.60;6.90;;;;;;;22.39;58.97;96703.31;5036264;28;20146;-80
2022/05/10 07:18:32;;;;;;;7.82;5.95;;;;;;;23.28;54.06;96691.09;5015793;28;20026;-80
2022/05/10 07:20:58;;;;;;;8.38;6.15;;;;;;;23.19;51.52;96698.66;4997284;28;20029;-80
2022/05/10 07:23:27;;;;;;;8.48;6.85;;;;;;;21.82;57.09;96700.72;5020219;28;20033;-79
2022/05/10 07:25:55;;;;;;;9.52;6.53;;;;;;;22.01;59.14;96706.97;5030152;28;20060;-80
2022/05/10 07:28:21;;;;;;;8.20;5.97;;;;;;;22.40;55.46;96699.59;5019805;28;20411;-79
2022/05/10 07:30:46;;;;;;;8.85;6.60;;;;;;;22.61;54.37;96701.03;5033398;28;20022;-80
2022/05/10 07:33:12;;;;;;;8.40;5.97;;;;;;;22.93;54.78;96701.69;5028562;28;20037;-80
2022/05/10 07:38:25;;;;;;;9.50;6.32;;;;;;;23.49;52.89;96693.25;5039057;28;20040;-80
2022/05/10 07:40:53;;;;;;;9.10;6.15;;;;;;;23.37;53.20;96695.09;5003666;28;20091;-80
2022/05/10 07:43:19;;;;;;;8.95;6.38;;;;;;;23.23;51.43;96699.81;5024105;28;20033;-81
2022/05/10 07:45:50;;;;;;;8.43;6.28;;;;;;;24.32;49.33;96690.69;5021492;28;20038;-81
2022/05/10 07:48:16;;;;;;;7.30;5.93;;;;;;;23.37;51.15;96699.63;5040330;28;20040;-80
2022/05/10 07:50:42;;;;;;;8.70;6.30;;;;;;;22.88;53.87;96701.53;5029634;28;20065;-79
2022/05/10 07:53:13;;;;;;;11.18;6.80;;;;;;;22.75;53.36;96692.59;5029866;28;20052;-79
2022/05/10 07:55:39;;;;;;;9.07;5.95;;;;;;;24.15;49.30;96680.63;5007322;28;20033;-78
2022/05/10 07:58:06;;;;;;;10.13;6.47;;;;;;;24.26;49.12;96688.94;5022529;28;20037;-81
2022/05/10 08:00:36;;;;;;;10.27;6.65;;;;;;;23.56;50.39;96703.91;5011298;28;20037;-79
2022/05/10 08:03:14;;;;;;;9.10;7.15;;;;;;;23.46;50.69;96691.03;5025887;28;20040;-78
2022/05/10 08:05:41;;;;;;;10.30;7.07;;;;;;;23.96;49.36;96695.22;5022221;28;20040;-79
2022/05/10 08:08:11;;;;;;;8.13;5.93;;;;;;;24.44;48.32;96694.19;5024733;28;20386;-79
2022/05/10 08:10:41;;;;;;;9.82;6.80;;;;;;;23.94;51.85;96694.63;5043629;28;20032;-79
2022/05/10 08:13:12;;;;;;;9.13;6.80;;;;;;;24.14;49.47;96692.41;5029836;28;20037;-79
2022/05/10 08:15:38;;;;;;;9.30;6.30;;;;;;;24.33;49.64;96703.88;5037094;28;20079;-79
2022/05/10 08:18:06;;;;;;;9.95;6.45;;;;;;;24.40;50.14;96699.22;5025351;28;20389;-79
2022/05/10 08:20:32;;;;;;;7.75;6.32;;;;;;;24.69;46.87;96694.75;5037347;28;20032;-79
2022/05/10 08:22:57;;;;;;;9.75;6.25;;;;;;;24.92;47.41;96690.34;5028700;28;20582;-79
2022/05/10 08:25:23;;;;;;;10.68;5.57;;;;;;;25.12;44.51;96696.16;5016953;28;20089;-79
2022/05/10 08:27:49;;;;;;;8.48;5.13;;;;;;;25.51;41.48;96690.94;5023589;28;20517;-79
2022/05/10 08:30:15;;;;;;;7.10;5.13;;;;;;;25.51;44.73;96690.13;5024346;28;20487;-79
2022/05/10 08:32:42;;;;;;;7.43;6.43;;;;;;;24.67;49.61;96693.34;5007393;28;20539;-79
2022/05/10 08:35:09;;;;;;;7.60;5.35;;;;;;;23.89;45.57;96692.66;5034022;28;20038;-79
2022/05/10 08:37:37;;;;;;;9.32;5.90;;;;;;;25.84;43.31;96694.75;5018921;28;20048;-79
2022/05/10 08:40:12;;;;;;;7.15;5.20;;;;;;;26.50;40.43;96684.97;5032307;28;20072;-79
2022/05/10 08:42:48;;;;;;;6.53;4.53;;;;;;;26.78;36.16;96688.56;5028847;28;20094;-80
2022/05/10 08:45:15;;;;;;;6.20;5.10;;;;;;;26.74;37.43;96682.03;5021188;28;20045;-80
2022/05/10 08:47:42;;;;;;;7.45;4.90;;;;;;;26.22;39.99;96687.75;5026762;28;20429;-80
2022/05/10 08:50:10;;;;;;;7.53;5.93;;;;;;;27.01;40.59;96684.78;5018988;28;20033;-81
2022/05/10 08:52:41;;;;;;;10.25;5.40;;;;;;;27.01;40.78;96674.78;5024776;28;20033;-80
2022/05/10 08:55:08;;;;;;;7.63;4.97;;;;;;;26.81;40.17;96674.56;5027543;28;20037;-80
2022/05/10 08:57:40;;;;;;;6.78;5.05;;;;;;;27.28;37.53;96679.41;5008629;28;20044;-80
2022/05/10 09:00:32;;;;;;;7.40;5.75;;;;;;;27.55;38.75;96678.59;5029783;28;20036;-79
2022/05/10 09:03:01;;;;;;;6.43;5.28;;;;;;;27.80;37.98;96669.91;5029757;28;20032;-80
2022/05/10 09:05:29;;;;;;;7.43;5.10;;;;;;;27.72;36.49;96680.09;5035048;28;20407;-79
2022/05/10 09:08:22;;;;;;;6.28;5.13;;;;;;;27.50;37.79;96668.56;5044948;28;20470;-80
2022/05/10 09:10:52;;;;;;;;;;;;;;;27.60;37.29;96670.53;5026571;28;20046;-81
2022/05/10 09:13:20;;;;;;;5.88;4.88;;;;;;;28.70;34.30;96667.25;5021344;28;19913;-80
2022/05/10 09:16:01;;;;;;;6.13;5.00;;;;;;;27.40;36.00;96666.59;5030922;28;20037;-79
2022/05/10 09:18:51;;;;;;;7.03;5.55;;;;;;;26.52;37.14;96665.81;5029958;28;20030;-79
2022/05/10 09:21:27;;;;;;;7.05;5.15;;;;;;;26.88;37.20;96659.00;5022467;28;20033;-80
2022/05/10 09:24:18;;;;;;;11.23;4.90;;;;;;;28.04;36.79;96657.69;5028268;28;20057;-80
2022/05/10 09:26:46;;;;;;;7.75;5.22;;;;;;;29.00;33.21;96651.13;5029010;28;20053;-80
2022/05/10 09:29:31;;;;;;;6.72;5.18;;;;;;;27.03;36.15;96661.88;5023354;28;20049;-81
2022/05/10 09:34:59;;;;;;;8.73;4.95;;;;;;;28.21;35.02;96657.50;5017084;28;20046;-80
2022/05/10 09:37:37;;;;;;;7.05;4.45;;;;;;;28.93;33.85;96655.16;5022344;28;20026;-80
2022/05/10 09:40:27;;;;;;;5.95;4.40;;;;;;;28.34;34.06;96656.25;5010924;28;20037;-80
2022/05/10 09:43:15;;;;;;;7.80;4.43;;;;;;;28.59;33.74;96655.56;5026485;28;20037;-80
2022/05/10 09:45:41;;;;;;;7.03;4.32;;;;;;;27.62;35.74;96653.00;5002874;28;20121;-80
2022/05/10 09:48:19;;;;;;;8.77;4.25;;;;;;;29.18;32.89;96657.16;5008579;28;20038;-80
2022/05/10 09:50:52;;;;;;;10.23;4.75;;;;;;;29.87;31.57;96653.16;5019580;28;20029;-81
2022/05/10 09:53:26;;;;;;;8.13;4.60;;;;;;;29.30;32.68;96649.59;5019942;28;20037;-80
2022/05/10 09:55:54;;;;;;;6.85;4.13;;;;;;;29.73;33.21;96645.56;5013443;28;20040;-81
2022/05/10 09:58:28;;;;;;;6.70;4.25;;;;;;;29.74;32.78;96647.19;5022301;28;20060;-81
2022/05/10 10:00:55;;;;;;;7.03;4.78;;;;;;;29.86;32.06;96646.13;5019857;28;20108;-80
2022/05/10 10:03:38;;;;;;;8.40;4.68;;;;;;;29.86;31.76;96652.34;5037874;28;20025;-81
2022/05/10 10:06:20;;;;;;;7.10;3.97;;;;;;;30.10;32.43;96654.50;5023459;28;20021;-79
2022/05/10 10:08:56;;;;;;;6.40;4.20;;;;;;;29.79;30.48;96647.22;5022308;28;20038;-80
2022/05/10 10:11:22;;;;;;;7.47;4.32;;;;;;;29.25;32.94;96650.41;5017134;28;20034;-82
2022/05/10 10:13:51;;;;;;;6.53;4.85;;;;;;;29.00;31.02;96644.91;5016626;28;20030;-82
2022/05/10 10:16:25;;;;;;;6.45;4.55;;;;;;;30.77;30.83;96640.50;5023647;28;20037;-81
2022/05/10 10:18:54;;;;;;;5.95;4.55;;;;;;;30.51;31.49;96642.47;5009450;28;20026;-81
2022/05/10 10:21:36;;;;;;;6.65;4.47;;;;;;;31.05;28.74;96635.47;5038805;28;20041;-81
2022/05/10 10:24:04;;;;;;;7.13;4.00;;;;;;;30.18;28.61;96643.06;5027721;28;20045;-81
2022/05/10 10:26:51;;;;;;;6.88;4.80;;;;;;;30.13;29.95;96643.91;5031081;28;20573;-81
2022/05/10 10:29:26;;;;;;;7.68;4.05;;;;;;;30.39;29.74;96635.75;5026835;28;21234;-81
2022/05/10 10:31:58;;;;;;;7.68;4.43;;;;;;;29.78;30.59;96639.34;5035667;28;20059;-82
2022/05/10 10:34:41;;;;;;;6.13;3.67;;;;;;;30.77;28.50;96632.34;5019697;28;20803;-81
2022/05/10 10:37:36;;;;;;;5.88;3.80;;;;;;;30.24;28.70;96633.88;5027207;28;20032;-81
2022/05/10 10:40:18;;;;;;;4.68;3.85;;;;;;;30.08;26.79;96627.66;5038492;28;20370;-81
2022/05/10 10:43:02;;;;;;;7.35;4.18;;;;;;;30.65;27.74;96621.00;5031459;28;20128;-80
2022/05/10 10:45:36;;;;;;;5.57;3.80;;;;;;;30.34;28.65;96630.31;5044672;28;20691;-81
2022/05/10 10:48:41;;;;;;;6.32;4.43;;;;;;;30.56;29.03;96611.81;5031298;28;20353;-80
2022/05/10 10:51:09;;;;;;;4.95;3.83;;;;;;;30.24;30.62;96612.97;5033034;28;20084;-80
2022/05/10 10:53:35;;;;;;;7.68;4.13;;;;;;;30.80;27.79;96617.41;5036129;28;20293;-80
2022/05/10 10:56:14;;;;;;;4.97;3.40;;;;;;;30.47;27.16;96606.13;5024188;28;20021;-80
2022/05/10 10:59:07;;;;;;;8.25;4.50;;;;;;;29.55;28.83;96608.97;5025334;28;20052;-80
2022/05/10 11:02:04;;;;;;;5.75;3.90;;;;;;;30.32;28.87;96606.19;5009861;28;20034;-79
2022/05/10 11:04:43;;;;;;;5.22;3.60;;;;;;;30.51;28.44;96609.09;5027732;28;20037;-80
2022/05/10 11:07:19;;;;;;;5.90;3.85;;;;;;;30.65;26.14;96602.00;5030919;28;20045;-80
2022/05/10 11:09:54;;;;;;;5.80;3.95;;;;;;;30.13;28.14;96605.13;5056841;28;20056;-80
2022/05/10 11:12:23;;;;;;;5.85;4.47;;;;;;;31.69;27.54;96595.63;5041545;28;20033;-79
2022/05/10 11:15:01;;;;;;;5.95;4.43;;;;;;;31.08;27.55;96594.16;5033080;28;20049;-80
2022/05/10 11:17:36;;;;;;;6.20;3.90;;;;;;;31.09;29.21;96595.00;5011929;28;20096;-80
2022/05/10 11:20:16;;;;;;;7.45;3.83;;;;;;;29.75;28.37;96591.91;5044672;28;20068;-80
2022/05/10 11:23:06;;;;;;;4.75;3.55;;;;;;;28.59;30.76;96593.34;5004103;28;20046;-80
2022/05/10 11:25:50;;;;;;;5.25;3.83;;;;;;;28.50;31.17;96589.50;5035235;28;20077;-80
2022/05/10 11:28:28;;;;;;;7.15;3.88;;;;;;;29.28;30.12;96581.34;5024441;28;20034;-79
2022/05/10 11:31:15;;;;;;;7.38;4.50;;;;;;;29.52;32.39;96587.03;5008508;28;20021;-80
2022/05/10 11:34:07;;;;;;;5.20;3.80;;;;;;;29.34;28.62;96591.91;5029554;28;20036;-80
2022/05/10 11:36:42;;;;;;;5.77;3.50;;;;;;;30.67;27.71;96569.94;5033949;28;20032;-81
2022/05/10 11:39:41;;;;;;;8.40;4.00;;;;;;;28.32;31.15;96582.66;5030132;28;20480;-80
2022/05/10 11:42:35;;;;;;;5.97;3.53;;;;;;;29.15;27.94;96581.88;5032453;28;20123;-78
2022/05/10 11:45:07;;;;;;;5.60;3.30;;;;;;;29.10;26.83;96574.53;5016008;28;20029;-79
2022/05/10 11:47:54;;;;;;;3.88;3.00;;;;;;;29.15;27.27;96573.75;5032124;28;20064;-79
2022/05/10 11:51:38;;;;;;;5.10;3.22;;;;;;;28.52;27.10;96563.00;5010304;28;20117;-79
2022/05/10 11:54:01;;;;;;;4.70;2.90;;;;;;;29.80;26.59;96567.50;5020568;28;20044;-81